WetterOnline ( http://www.wetteronline.ch )

Wetter aktuell Emden

Aktuelles Wetter: Emden (5m)

6-stündlich | Neueste Meldungen
Ortszeit Temperatur Wetter
Sa, 23.03. 1:00 6.7° C bedeckt
Fr, 22.03. 19:00 15.4° C wolkenlos
Fr, 22.03. 13:00 13.7° C wolkenlos
Fr, 22.03. 7:00 8.2° C bedeckt
Fr, 22.03. 1:00 8.0° C bedeckt
Do, 21.03. 19:00 9.1° C bedeckt
Do, 21.03. 13:00 10.3° C bedeckt
Do, 21.03. 7:00 8.6° C leicht bewölkt
Ortszeit Temperatur Wetter
Sa, 23.03. 5:00 5.7° C fast wolkenlos
Sa, 23.03. 4:50 5.7° C fast wolkenlos
Sa, 23.03. 4:40 5.7° C fast wolkenlos
Sa, 23.03. 4:30 5.6° C wolkenlos
Sa, 23.03. 4:20 5.6° C wolkenlos
Sa, 23.03. 4:10 5.7° C wolkenlos
Sa, 23.03. 4:00 5.6° C fast wolkenlos
Sa, 23.03. 3:30 5.5° C wolkig
Sa, 23.03. 3:00 5.2° C fast wolkenlos
Sa, 23.03. 2:30 5.3° C wolkig
Sa, 23.03. 2:00 5.3° C leicht bewölkt
Ortszeit Relative Feuchte Sichtweite
Sa, 23.03. 1:00 93% 4.5 km
Fr, 22.03. 19:00 59% 25 km
Fr, 22.03. 13:00 76% 6 km
Fr, 22.03. 7:00 96% 1.8 km
Fr, 22.03. 1:00 92% 9 km
Do, 21.03. 19:00 86% 18 km
Do, 21.03. 13:00 81% 16 km
Do, 21.03. 7:00 91% 10 km
Ortszeit Relative Feuchte Sichtweite
Sa, 23.03. 5:00 94% 3.0 km
Sa, 23.03. 4:50 94% -
Sa, 23.03. 4:40 94% -
Sa, 23.03. 4:30 94% 2.9 km
Sa, 23.03. 4:20 94% -
Sa, 23.03. 4:10 93% -
Sa, 23.03. 4:00 94% 3.2 km
Sa, 23.03. 3:30 94% 3.0 km
Sa, 23.03. 3:00 95% 3.0 km
Sa, 23.03. 2:30 95% 3.2 km
Sa, 23.03. 2:00 93% 3.2 km
Ortszeit Niederschlagsmenge Niederschlagsart
Sa, 23.03. 1:00 0.0 l/m2 in 6 Std. -
Fr, 22.03. 19:00 0.0 l/m2 in 12 Std. -
Fr, 22.03. 13:00 0.0 l/m2 in 6 Std. -
Fr, 22.03. 7:00 0.1 l/m2 in 12 Std. -
Fr, 22.03. 1:00 0.1 l/m2 in 6 Std. Sprühregen
Do, 21.03. 19:00 0.0 l/m2 in 12 Std. -
Do, 21.03. 13:00 0.0 l/m2 in 6 Std. -
Do, 21.03. 7:00 0.0 l/m2 in 12 Std. -
Ortszeit Niederschlagsmenge Niederschlagsart
Sa, 23.03. 5:00 0.0 l/m2 in 1 Std. -
Sa, 23.03. 4:50 keine Meldung -
Sa, 23.03. 4:40 keine Meldung -
Sa, 23.03. 4:30 0.0 l/m2 in 1 Std. -
Sa, 23.03. 4:20 keine Meldung -
Sa, 23.03. 4:10 keine Meldung -
Sa, 23.03. 4:00 0.0 l/m2 in 1 Std. -
Sa, 23.03. 3:30 0.0 l/m2 in 1 Std. -
Sa, 23.03. 3:00 0.0 l/m2 in 1 Std. -
Sa, 23.03. 2:30 0.0 l/m2 in 1 Std. -
Sa, 23.03. 2:00 0.0 l/m2 in 1 Std. -
Ortszeit Stärke Spitze Richtung
km/h Bft. km/h Grad Sektor
Sa, 23.03. 1:00 13 3 35 290° W
Fr, 22.03. 19:00 7 2 25 210° SW
Fr, 22.03. 13:00 15 3 24 160° S
Fr, 22.03. 7:00 9 2 15 160° S
Fr, 22.03. 1:00 4 1 14 70° O
Do, 21.03. 19:00 9 2 26 250° W
Do, 21.03. 13:00 17 3 31 230° SW
Do, 21.03. 7:00 14 3 25 200° S
Ortszeit Stärke Spitze Richtung
km/h Bft. km/h Grad Sektor
Sa, 23.03. 5:00 7 2 14 230° SW
Sa, 23.03. 4:50 7 2 - 230° SW
Sa, 23.03. 4:40 7 2 - 230° SW
Sa, 23.03. 4:30 7 2 14 240° SW
Sa, 23.03. 4:20 7 2 - 240° SW
Sa, 23.03. 4:10 7 2 - 230° SW
Sa, 23.03. 4:00 7 2 14 240° SW
Sa, 23.03. 3:30 7 2 11 240° SW
Sa, 23.03. 3:00 7 2 11 250° W
Sa, 23.03. 2:30 6 1 7 240° SW
Sa, 23.03. 2:00 6 1 22 260° W
Ortszeit Untergrenze Bedeckung Gattung
total tief tief mittel hoch
Sa, 23.03. 1:00 240 m 8/8 8/8 - - -
Fr, 22.03. 19:00 - 0/8 0/8 - - -
Fr, 22.03. 13:00 - 0/8 0/8 - - -
Fr, 22.03. 7:00 90 m 8/8 8/8 - - -
Fr, 22.03. 1:00 180 m 8/8 8/8 - - -
Do, 21.03. 19:00 270 m 8/8 8/8 - - -
Do, 21.03. 13:00 330 m 8/8 8/8 - - -
Do, 21.03. 7:00 510 m 2/8 2/8 - - -
Ortszeit Bedeckungsgrad in Achtel und Wolkenuntergrenze
Sa, 23.03. 5:00 2(9000m)
Sa, 23.03. 4:50 2(9000m)
Sa, 23.03. 4:40 1(9000m)
Sa, 23.03. 4:30 2(9000m)
Sa, 23.03. 4:20 keine Wolken
Sa, 23.03. 4:10 keine Wolken
Sa, 23.03. 4:00 2(9000m)
Sa, 23.03. 3:30 5(9000m) 7(10500m)
Sa, 23.03. 3:00 1(10500m)
Sa, 23.03. 2:30 1(330m) 3(10500m) 7(12000m)
Sa, 23.03. 2:00 2(360m)
Ortszeit Luftdruck NN (hPa) Tendenz (hPa in 3 Std.)
Sa, 23.03. 1:00 1027 + 0,5
Fr, 22.03. 19:00 1026 - 1,2
Fr, 22.03. 13:00 1030 - 2,1
Fr, 22.03. 7:00 1032 - 0,1
Fr, 22.03. 1:00 1033 - 0,8
Do, 21.03. 19:00 1033 + 0,1
Do, 21.03. 13:00 1034 - 0,1
Do, 21.03. 7:00 1032 - 0,6
Ortszeit Luftdruck NN (hPa) Tendenz (hPa in 3 Std.)
Sa, 23.03. 5:00 1027 - 0,1
Sa, 23.03. 4:50 1027 keine Meldung
Sa, 23.03. 4:40 1027 keine Meldung
Sa, 23.03. 4:30 1027 - 0,2
Sa, 23.03. 4:20 1027 keine Meldung
Sa, 23.03. 4:10 1027 keine Meldung
Sa, 23.03. 4:00 1026 - 0,7
Sa, 23.03. 3:30 1026 - 0,7
Sa, 23.03. 3:00 1027 - 0,3
Sa, 23.03. 2:30 1027 - 0,1
Sa, 23.03. 2:00 1027 - 0,3
Ortszeit Schneehöhe (cm)
Sa, 23.03. 1:00 0
Fr, 22.03. 19:00 0
Fr, 22.03. 13:00 0
Fr, 22.03. 7:00 0
Fr, 22.03. 1:00 0
Do, 21.03. 19:00 0
Do, 21.03. 13:00 0
Do, 21.03. 7:00 0
Ortszeit Schneehöhe (cm)
Sa, 23.03. 5:00 0
Sa, 23.03. 4:50 0
Sa, 23.03. 4:40 0
Sa, 23.03. 4:30 0
Sa, 23.03. 4:20 0
Sa, 23.03. 4:10 0
Sa, 23.03. 4:00 0
Sa, 23.03. 3:30 0
Sa, 23.03. 3:00 0
Sa, 23.03. 2:30 0
Sa, 23.03. 2:00 0
Link zu dieser Seite / Seite empfehlen

Das Wetter in ...